createdAt,value
2023-11-26T00:01:52.608Z,97901.31
2023-11-26T00:04:19.849Z,97903.50
2023-11-26T00:06:46.958Z,97909.19
2023-11-26T00:09:14.051Z,97900.50
2023-11-26T00:11:41.100Z,97901.25
2023-11-26T00:14:08.402Z,97900.63
2023-11-26T00:16:38.612Z,97894.19
2023-11-26T00:19:05.940Z,97904.28
2023-11-26T00:21:32.971Z,97899.38
2023-11-26T00:24:00.335Z,97899.53
2023-11-26T00:26:27.607Z,97906.94
2023-11-26T00:28:55.235Z,97909.25
2023-11-26T00:31:22.216Z,97914.41
2023-11-26T00:33:49.444Z,97906.78
2023-11-26T00:36:16.764Z,97904.84
2023-11-26T00:38:44.473Z,97895.41
2023-11-26T00:41:11.686Z,97894.97
2023-11-26T00:43:38.794Z,97894.81
2023-11-26T00:46:05.800Z,97893.91
2023-11-26T00:48:33.069Z,97886.88
2023-11-26T00:51:00.072Z,97887.56
2023-11-26T00:53:27.226Z,97886.88
2023-11-26T00:55:54.269Z,97888.97
2023-11-26T00:58:21.347Z,97900.06
2023-11-26T01:00:48.407Z,97905.81
2023-11-26T01:03:15.534Z,97905.00
2023-11-26T01:05:42.684Z,97913.03
2023-11-26T01:08:09.802Z,97912.34
2023-11-26T01:10:36.986Z,97909.53
2023-11-26T01:13:04.279Z,97911.44
2023-11-26T01:15:31.348Z,97911.34
2023-11-26T01:17:58.606Z,97900.69
2023-11-26T01:20:25.770Z,97904.63
2023-11-26T01:22:53.846Z,97905.00
2023-11-26T01:25:20.788Z,97899.03
2023-11-26T01:27:47.841Z,97912.22
2023-11-26T01:30:14.855Z,97911.63
2023-11-26T01:32:42.475Z,97909.56
2023-11-26T01:35:09.580Z,97905.00
2023-11-26T01:37:36.804Z,97912.13
2023-11-26T01:40:04.415Z,97916.72
2023-11-26T01:42:31.481Z,97916.63
2023-11-26T01:44:58.516Z,97918.75
2023-11-26T01:47:25.734Z,97917.97
2023-11-26T01:49:52.953Z,97925.97
2023-11-26T01:52:20.069Z,97921.56
2023-11-26T01:54:47.276Z,97926.97
2023-11-26T01:57:15.099Z,97933.63
2023-11-26T01:59:42.191Z,97934.97
2023-11-26T02:02:09.262Z,97935.31
2023-11-26T02:04:36.669Z,97938.34
2023-11-26T02:07:04.762Z,97933.06
2023-11-26T02:09:31.891Z,97925.00
2023-11-26T02:11:58.980Z,97929.94
2023-11-26T02:14:26.004Z,97931.84
2023-11-26T02:16:53.071Z,97935.69
2023-11-26T02:19:20.142Z,97925.34
2023-11-26T02:21:47.164Z,97938.56
2023-11-26T02:24:15.799Z,97934.91
2023-11-26T02:26:42.839Z,97923.19
2023-11-26T02:29:09.898Z,97934.06
2023-11-26T02:31:37.100Z,97921.06
2023-11-26T02:34:04.213Z,97923.78
2023-11-26T02:36:31.285Z,97929.22
2023-11-26T02:38:58.355Z,97926.00
2023-11-26T02:41:25.936Z,97922.34
2023-11-26T02:43:53.253Z,97920.06
2023-11-26T02:46:20.332Z,97926.94
2023-11-26T02:48:47.369Z,97925.84
2023-11-26T02:51:14.424Z,97924.31
2023-11-26T02:53:41.450Z,97917.91
2023-11-26T02:56:08.713Z,97923.84
2023-11-26T02:58:35.827Z,97926.50
2023-11-26T03:01:02.901Z,97933.94
2023-11-26T03:03:30.096Z,97932.94
2023-11-26T03:05:57.193Z,97929.56
2023-11-26T03:08:24.254Z,97931.91
2023-11-26T03:10:51.730Z,97936.03
2023-11-26T03:13:18.803Z,97931.59
2023-11-26T03:15:45.939Z,97935.31
2023-11-26T03:18:12.992Z,97940.19
2023-11-26T03:20:43.299Z,97944.28
2023-11-26T03:23:10.677Z,97945.13
2023-11-26T03:25:38.093Z,97944.78
2023-11-26T03:28:05.502Z,97941.16
2023-11-26T03:30:32.953Z,97938.06
2023-11-26T03:33:00.032Z,97950.00
2023-11-26T03:35:27.418Z,97948.66
2023-11-26T03:37:54.955Z,97953.78
2023-11-26T03:40:22.232Z,97948.50
2023-11-26T03:42:49.251Z,97956.16
2023-11-26T03:45:16.504Z,97959.38
2023-11-26T03:47:43.635Z,97962.03
2023-11-26T03:50:10.957Z,97969.38
2023-11-26T03:52:38.461Z,97974.03
2023-11-26T03:55:06.178Z,97967.81
2023-11-26T03:57:33.400Z,97973.44
2023-11-26T04:00:00.853Z,97977.47
2023-11-26T04:02:28.180Z,97987.91
2023-11-26T04:04:55.345Z,97973.41
2023-11-26T04:07:22.416Z,97981.81
2023-11-26T04:09:49.631Z,97983.53
2023-11-26T04:12:16.724Z,97983.13
2023-11-26T04:14:53.978Z,97983.28
2023-11-26T04:17:22.013Z,97988.25
2023-11-26T04:19:49.314Z,97997.84
2023-11-26T04:22:18.431Z,98002.53
2023-11-26T04:24:45.409Z,97993.25
2023-11-26T04:27:12.402Z,97997.13
2023-11-26T04:29:39.454Z,97997.69
2023-11-26T04:32:06.561Z,97995.03
2023-11-26T04:34:33.836Z,97999.50
2023-11-26T04:37:01.697Z,97999.25
2023-11-26T04:39:29.136Z,98015.13
2023-11-26T04:41:56.125Z,98022.34
2023-11-26T04:44:23.284Z,98021.06
2023-11-26T04:46:50.672Z,98022.41
2023-11-26T04:49:17.893Z,98025.47
2023-11-26T04:51:44.882Z,98022.28
2023-11-26T04:54:12.084Z,98022.94
2023-11-26T04:56:42.210Z,98031.63
2023-11-26T04:59:09.741Z,98029.41
2023-11-26T05:01:37.666Z,98038.75
2023-11-26T05:04:05.501Z,98038.69
2023-11-26T05:06:32.723Z,98048.63
2023-11-26T05:08:59.837Z,98063.06
2023-11-26T05:11:26.858Z,98063.72
2023-11-26T05:13:54.121Z,98060.97
2023-11-26T05:16:21.593Z,98067.34
2023-11-26T05:18:49.131Z,98074.97
2023-11-26T05:21:16.375Z,98084.41
2023-11-26T05:23:43.556Z,98086.31
2023-11-26T05:26:12.651Z,98085.31
2023-11-26T05:28:39.906Z,98085.34
2023-11-26T05:31:07.260Z,98096.63
2023-11-26T05:33:34.510Z,98098.81
2023-11-26T05:36:01.667Z,98107.94
2023-11-26T05:38:28.883Z,98110.97
2023-11-26T05:40:55.965Z,98114.50
2023-11-26T05:43:23.030Z,98117.47
2023-11-26T05:45:50.054Z,98117.50
2023-11-26T05:48:17.160Z,98120.03
2023-11-26T05:50:44.387Z,98122.03
2023-11-26T05:53:11.451Z,98128.06
2023-11-26T05:55:38.440Z,98135.34
2023-11-26T05:58:05.481Z,98131.84
2023-11-26T06:00:32.611Z,98141.50
2023-11-26T06:03:00.219Z,98145.03
2023-11-26T06:05:27.930Z,98147.53
2023-11-26T06:07:55.364Z,98162.16
2023-11-26T06:10:22.850Z,98165.50
2023-11-26T06:12:50.303Z,98169.16
2023-11-26T06:15:17.819Z,98172.50
2023-11-26T06:17:45.394Z,98173.97
2023-11-26T06:20:12.982Z,98185.34
2023-11-26T06:22:40.351Z,98184.09
2023-11-26T06:25:08.616Z,98196.59
2023-11-26T06:27:35.824Z,98193.34
2023-11-26T06:30:02.890Z,98206.97
2023-11-26T06:32:29.955Z,98209.22
2023-11-26T06:34:57.028Z,98222.00
2023-11-26T06:37:25.539Z,98219.34
2023-11-26T06:39:52.643Z,98226.03
2023-11-26T06:42:20.009Z,98234.63
2023-11-26T06:44:47.010Z,98239.69
2023-11-26T06:47:14.084Z,98233.59
2023-11-26T06:49:41.094Z,98241.78
2023-11-26T06:52:08.154Z,98246.16
2023-11-26T06:54:35.150Z,98250.31
2023-11-26T06:57:02.242Z,98250.56
2023-11-26T06:59:29.254Z,98264.41
2023-11-26T07:01:56.331Z,98264.81
2023-11-26T07:04:23.545Z,98276.97
2023-11-26T07:06:50.697Z,98277.72
2023-11-26T07:09:17.885Z,98271.78
2023-11-26T07:11:44.974Z,98277.94
2023-11-26T07:14:11.932Z,98283.13
2023-11-26T07:16:39.026Z,98286.59
2023-11-26T07:19:06.054Z,98294.38
2023-11-26T07:21:39.434Z,98303.22
2023-11-26T07:24:06.602Z,98294.09
2023-11-26T07:26:33.642Z,98299.91
2023-11-26T07:29:00.768Z,98306.47
2023-11-26T07:31:27.815Z,98316.81
2023-11-26T07:33:54.799Z,98324.19
2023-11-26T07:36:22.693Z,98320.94
2023-11-26T07:38:50.098Z,98328.53
2023-11-26T07:41:17.431Z,98347.00
2023-11-26T07:43:44.802Z,98339.97
2023-11-26T07:46:12.799Z,98350.19
2023-11-26T07:48:40.618Z,98353.16
2023-11-26T07:51:09.972Z,98364.63
2023-11-26T07:53:37.167Z,98360.66
2023-11-26T07:56:04.892Z,98367.97
2023-11-26T07:58:32.459Z,98383.56
2023-11-26T08:01:00.034Z,98397.13
2023-11-26T08:03:27.328Z,98398.34
2023-11-26T08:05:54.686Z,98405.19
2023-11-26T08:08:22.421Z,98405.56
2023-11-26T08:10:50.201Z,98416.78
2023-11-26T08:13:17.655Z,98424.41
2023-11-26T08:15:44.893Z,98427.88
2023-11-26T08:18:13.235Z,98431.16
2023-11-26T08:20:40.499Z,98436.44
2023-11-26T08:23:07.701Z,98451.84
2023-11-26T08:25:34.924Z,98446.88
2023-11-26T08:28:02.062Z,98464.59
2023-11-26T08:30:29.263Z,98455.28
2023-11-26T08:32:56.505Z,98471.94
2023-11-26T08:35:23.701Z,98477.78
2023-11-26T08:37:50.960Z,98468.69
2023-11-26T08:40:18.518Z,98480.56
2023-11-26T08:42:45.812Z,98478.44
2023-11-26T08:45:13.065Z,98485.69
2023-11-26T08:47:41.050Z,98484.94
2023-11-26T08:50:08.818Z,98481.28
2023-11-26T08:52:36.685Z,98480.66
2023-11-26T08:55:04.426Z,98489.34
2023-11-26T08:57:34.974Z,98491.63
2023-11-26T09:00:02.157Z,98496.13
2023-11-26T09:02:29.461Z,98498.94
2023-11-26T09:04:56.694Z,98499.09
2023-11-26T09:07:23.959Z,98506.13
2023-11-26T09:09:51.157Z,98507.56
2023-11-26T09:12:18.377Z,98511.84
2023-11-26T09:14:45.612Z,98518.53
2023-11-26T09:17:12.981Z,98520.88
2023-11-26T09:19:40.300Z,98515.41
2023-11-26T09:22:07.492Z,98525.84
2023-11-26T09:24:34.835Z,98520.44
2023-11-26T09:27:02.226Z,98528.06
2023-11-26T09:29:33.389Z,98534.03
2023-11-26T09:32:01.009Z,98541.03
2023-11-26T09:34:28.177Z,98542.41
2023-11-26T09:36:55.637Z,98547.13
2023-11-26T09:39:23.106Z,98545.38
2023-11-26T09:41:53.268Z,98540.56
2023-11-26T09:44:20.434Z,98542.66
2023-11-26T09:46:47.674Z,98543.03
2023-11-26T09:49:14.923Z,98542.97
2023-11-26T09:51:42.715Z,98552.72
2023-11-26T09:54:10.183Z,98544.41
2023-11-26T09:56:38.358Z,98553.16
2023-11-26T09:59:05.537Z,98558.34
2023-11-26T10:01:32.802Z,98562.06
2023-11-26T10:04:01.001Z,98562.53
2023-11-26T10:06:29.162Z,98567.75
2023-11-26T10:08:57.750Z,98569.56
2023-11-26T10:11:28.026Z,98565.63
2023-11-26T10:13:55.682Z,98564.97
2023-11-26T10:16:29.214Z,98576.56
2023-11-26T10:18:56.468Z,98574.66
2023-11-26T10:21:23.745Z,98578.53
2023-11-26T10:23:51.016Z,98585.28
2023-11-26T10:26:20.696Z,98583.69
2023-11-26T10:28:58.942Z,98575.06
2023-11-26T10:31:26.171Z,98587.50
2023-11-26T10:33:53.410Z,98584.56
2023-11-26T10:36:30.392Z,98591.16
2023-11-26T10:38:57.672Z,98602.78
2023-11-26T10:41:25.902Z,98606.59
2023-11-26T10:43:55.812Z,98608.47
2023-11-26T10:46:24.183Z,98595.84
2023-11-26T10:48:57.105Z,98609.69
2023-11-26T10:51:26.861Z,98612.50
2023-11-26T10:54:01.311Z,98621.34
2023-11-26T10:56:35.797Z,98618.75
2023-11-26T10:59:03.411Z,98618.84
2023-11-26T11:01:30.661Z,98619.66
2023-11-26T11:03:58.753Z,98624.78
2023-11-26T11:06:26.756Z,98622.38
2023-11-26T11:08:54.281Z,98643.69
2023-11-26T11:11:35.413Z,98644.25
2023-11-26T11:14:03.018Z,98652.28
2023-11-26T11:16:30.664Z,98644.47
2023-11-26T11:18:57.898Z,98674.41
2023-11-26T11:21:25.167Z,98657.50
2023-11-26T11:23:54.535Z,98672.63
2023-11-26T11:26:22.724Z,98674.19
2023-11-26T11:28:50.926Z,98688.22
2023-11-26T11:31:19.258Z,98691.03
2023-11-26T11:33:55.781Z,98692.41
2023-11-26T11:36:42.427Z,98697.03
2023-11-26T11:39:09.952Z,98705.34
2023-11-26T11:41:57.086Z,98700.75
2023-11-26T11:44:31.639Z,98695.41
2023-11-26T11:47:02.540Z,98709.56
2023-11-26T11:49:48.164Z,98704.53
2023-11-26T11:52:15.909Z,98718.72
2023-11-26T11:54:55.353Z,98716.06
2023-11-26T11:57:26.578Z,98728.59
2023-11-26T11:59:54.433Z,98724.63
2023-11-26T12:02:24.405Z,98743.44
2023-11-26T12:04:52.036Z,98748.97
2023-11-26T12:07:20.922Z,98759.59
2023-11-26T12:09:48.481Z,98759.53
2023-11-26T12:12:19.170Z,98775.53
2023-11-26T12:14:46.769Z,98776.41
2023-11-26T12:17:14.268Z,98777.41
2023-11-26T12:19:42.708Z,98791.34
2023-11-26T12:22:11.065Z,98790.00
2023-11-26T12:24:38.709Z,98800.28
2023-11-26T12:27:06.357Z,98805.59
2023-11-26T12:29:34.358Z,98812.69
2023-11-26T12:32:10.399Z,98812.31
2023-11-26T12:34:38.554Z,98830.78
2023-11-26T12:37:09.996Z,98824.22
2023-11-26T12:39:44.234Z,98835.31
2023-11-26T12:42:11.778Z,98850.59
2023-11-26T12:44:39.347Z,98855.50
2023-11-26T12:47:06.533Z,98853.34
2023-11-26T12:49:33.740Z,98851.25
2023-11-26T12:52:00.948Z,98865.38
2023-11-26T12:54:28.315Z,98873.00
2023-11-26T12:56:58.714Z,98868.59
2023-11-26T12:59:25.964Z,98876.13
2023-11-26T13:01:53.274Z,98879.44
2023-11-26T13:04:30.029Z,98879.69
2023-11-26T13:06:57.319Z,98905.47
2023-11-26T13:09:24.767Z,98914.00
2023-11-26T13:11:52.066Z,98910.81
2023-11-26T13:14:19.308Z,98916.25
2023-11-26T13:16:47.203Z,98925.94
2023-11-26T13:19:14.603Z,98933.56
2023-11-26T13:21:51.005Z,98945.75
2023-11-26T13:24:18.606Z,98935.19
2023-11-26T13:26:45.835Z,98950.19
2023-11-26T13:29:13.038Z,98955.81
2023-11-26T13:31:40.632Z,98959.66
2023-11-26T13:34:07.934Z,98967.38
2023-11-26T13:36:35.323Z,98969.50
2023-11-26T13:39:02.593Z,98977.69
2023-11-26T13:41:29.764Z,98979.84
2023-11-26T13:43:57.135Z,98988.09
2023-11-26T13:46:24.498Z,98994.72
2023-11-26T13:48:51.943Z,99009.88
2023-11-26T13:51:19.253Z,99007.78
2023-11-26T13:53:46.548Z,99024.34
2023-11-26T13:56:13.715Z,99030.13
2023-11-26T13:58:40.953Z,99036.28
2023-11-26T14:01:08.582Z,99042.06
2023-11-26T14:03:36.287Z,99054.28
2023-11-26T14:06:04.490Z,99058.41
2023-11-26T14:08:32.037Z,99065.56
2023-11-26T14:10:59.703Z,99063.19
2023-11-26T14:13:28.843Z,99073.03
2023-11-26T14:15:56.813Z,99068.28
2023-11-26T14:18:24.476Z,99079.69
2023-11-26T14:20:51.685Z,99083.63
2023-11-26T14:23:18.952Z,99083.63
2023-11-26T14:25:46.105Z,99087.63
2023-11-26T14:28:13.284Z,99096.88
2023-11-26T14:30:40.565Z,99101.41
2023-11-26T14:33:08.021Z,99095.84
2023-11-26T14:35:35.414Z,99104.81
2023-11-26T14:38:02.776Z,99108.00
2023-11-26T14:40:29.941Z,99121.19
2023-11-26T14:42:57.154Z,99124.31
2023-11-26T14:45:24.515Z,99124.31
2023-11-26T14:47:51.772Z,99126.47
2023-11-26T14:50:19.439Z,99132.84
2023-11-26T14:52:47.105Z,99137.41
2023-11-26T14:55:15.261Z,99137.88
2023-11-26T14:57:43.336Z,99140.22
2023-11-26T15:00:11.142Z,99142.84
2023-11-26T15:02:38.446Z,99147.66
2023-11-26T15:05:08.775Z,99151.28
2023-11-26T15:07:36.008Z,99149.72
2023-11-26T15:10:03.403Z,99160.31
2023-11-26T15:12:30.732Z,99161.94
2023-11-26T15:14:57.939Z,99173.53
2023-11-26T15:17:25.214Z,99176.19
2023-11-26T15:19:52.585Z,99183.44
2023-11-26T15:22:20.090Z,99188.59
2023-11-26T15:24:47.393Z,99196.38
2023-11-26T15:27:15.067Z,99192.06
2023-11-26T15:29:42.260Z,99198.66
2023-11-26T15:32:12.112Z,99195.09
2023-11-26T15:34:40.439Z,99201.38
2023-11-26T15:37:07.738Z,99208.75
2023-11-26T15:39:35.027Z,99204.59
2023-11-26T15:42:02.386Z,99202.75
2023-11-26T15:44:30.240Z,99212.91
2023-11-26T15:46:57.886Z,99220.44
2023-11-26T15:49:25.426Z,99223.53
2023-11-26T15:51:53.612Z,99222.06
2023-11-26T15:54:21.023Z,99234.63
2023-11-26T15:56:48.375Z,99238.81
2023-11-26T15:59:15.516Z,99235.00
2023-11-26T16:01:42.825Z,99238.22
2023-11-26T16:04:10.199Z,99232.31
2023-11-26T16:06:37.468Z,99249.28
2023-11-26T16:09:04.703Z,99246.59
2023-11-26T16:11:32.288Z,99256.50
2023-11-26T16:13:59.972Z,99265.06
2023-11-26T16:16:27.439Z,99267.25
2023-11-26T16:18:57.635Z,99257.88
2023-11-26T16:21:25.002Z,99267.63
2023-11-26T16:23:52.284Z,99274.50
2023-11-26T16:26:38.186Z,99284.56
2023-11-26T16:29:05.446Z,99278.09
2023-11-26T16:31:32.713Z,99279.97
2023-11-26T16:33:59.981Z,99278.31
2023-11-26T16:36:27.200Z,99278.00
2023-11-26T16:38:54.476Z,99275.56
2023-11-26T16:41:21.634Z,99281.16
2023-11-26T16:43:49.273Z,99289.22
2023-11-26T16:46:20.515Z,99283.94
2023-11-26T16:48:47.859Z,99288.09
2023-11-26T16:51:15.262Z,99294.50
2023-11-26T16:53:42.743Z,99291.13
2023-11-26T16:56:11.094Z,99294.44
2023-11-26T16:58:39.052Z,99301.25
2023-11-26T17:01:07.231Z,99307.84
2023-11-26T17:03:35.286Z,99317.25
2023-11-26T17:06:03.992Z,99320.88
2023-11-26T17:08:31.425Z,99325.22
2023-11-26T17:10:58.753Z,99329.56
2023-11-26T17:13:28.401Z,99329.56
2023-11-26T17:15:56.034Z,99334.16
2023-11-26T17:18:23.390Z,99333.91
2023-11-26T17:20:52.763Z,99339.63
2023-11-26T17:23:19.992Z,99339.81
2023-11-26T17:25:47.202Z,99341.72
2023-11-26T17:28:14.805Z,99353.63
2023-11-26T17:30:41.975Z,99353.00
2023-11-26T17:33:09.334Z,99356.94
2023-11-26T17:35:36.508Z,99359.84
2023-11-26T17:38:04.013Z,99360.31
2023-11-26T17:40:31.281Z,99366.31
2023-11-26T17:42:59.101Z,99368.84
2023-11-26T17:45:26.767Z,99371.88
2023-11-26T17:47:54.004Z,99376.75
2023-11-26T17:50:21.236Z,99380.22
2023-11-26T17:52:53.391Z,99381.00
2023-11-26T17:55:28.433Z,99384.84
2023-11-26T17:57:55.824Z,99390.50
2023-11-26T18:00:23.080Z,99396.03
2023-11-26T18:02:50.196Z,99393.94
2023-11-26T18:05:17.545Z,99404.06
2023-11-26T18:07:44.752Z,99400.47
2023-11-26T18:10:11.963Z,99399.13
2023-11-26T18:12:39.258Z,99401.81
2023-11-26T18:15:06.983Z,99409.81
2023-11-26T18:17:34.339Z,99409.75
2023-11-26T18:20:03.022Z,99404.72
2023-11-26T18:22:30.300Z,99417.03
2023-11-26T18:24:57.495Z,99419.28
2023-11-26T18:27:25.090Z,99418.38
2023-11-26T18:29:54.550Z,99425.66
2023-11-26T18:32:21.841Z,99418.78
2023-11-26T18:34:51.364Z,99429.50
2023-11-26T18:37:20.754Z,99437.28
2023-11-26T18:39:48.123Z,99440.06
2023-11-26T18:42:17.835Z,99435.81
2023-11-26T18:44:45.231Z,99441.34
2023-11-26T18:47:14.688Z,99444.22
2023-11-26T18:49:41.969Z,99455.75
2023-11-26T18:52:09.170Z,99460.38
2023-11-26T18:54:38.220Z,99466.94
2023-11-26T18:57:05.456Z,99476.31
2023-11-26T18:59:35.517Z,99469.97
2023-11-26T19:02:02.610Z,99463.00
2023-11-26T19:04:35.270Z,99468.72
2023-11-26T19:07:02.395Z,99476.53
2023-11-26T19:09:29.519Z,99471.59
2023-11-26T19:11:56.634Z,99480.22
2023-11-26T19:14:23.714Z,99490.78
2023-11-26T19:16:50.801Z,99506.63
2023-11-26T19:19:17.821Z,99507.00
2023-11-26T19:21:48.183Z,99510.94
2023-11-26T19:24:15.348Z,99515.47
2023-11-26T19:26:42.586Z,99519.81
2023-11-26T19:29:09.903Z,99534.41
2023-11-26T19:31:36.876Z,99524.44
2023-11-26T19:34:04.154Z,99528.03
2023-11-26T19:36:31.797Z,99528.00
2023-11-26T19:38:58.889Z,99533.63
2023-11-26T19:41:28.755Z,99535.03
2023-11-26T19:43:55.817Z,99547.84
2023-11-26T19:46:22.975Z,99543.94
2023-11-26T19:48:50.340Z,99542.00
2023-11-26T19:51:19.543Z,99542.91
2023-11-26T19:53:46.972Z,99556.59
2023-11-26T19:56:14.145Z,99557.22
2023-11-26T19:58:46.169Z,99554.91
2023-11-26T20:01:14.028Z,99552.34
2023-11-26T20:03:42.099Z,99554.69
2023-11-26T20:06:09.424Z,99552.72
2023-11-26T20:08:36.493Z,99564.56
2023-11-26T20:11:06.428Z,99562.59
2023-11-26T20:13:33.552Z,99571.19
2023-11-26T20:16:00.823Z,99565.31
2023-11-26T20:18:33.635Z,99567.66
2023-11-26T20:21:01.768Z,99565.16
2023-11-26T20:23:29.755Z,99565.63
2023-11-26T20:25:57.386Z,99565.00
2023-11-26T20:28:24.510Z,99573.69
2023-11-26T20:30:52.129Z,99571.50
2023-11-26T20:33:19.532Z,99576.47
2023-11-26T20:35:46.849Z,99581.03
2023-11-26T20:38:13.992Z,99588.00
2023-11-26T20:40:41.096Z,99594.03
2023-11-26T20:43:09.127Z,99590.69
2023-11-26T20:45:38.464Z,99585.44
2023-11-26T20:48:05.786Z,99597.81
2023-11-26T20:50:32.780Z,99591.41
2023-11-26T20:52:59.796Z,99590.31
2023-11-26T20:55:27.298Z,99600.75
2023-11-26T20:57:54.345Z,99598.16
2023-11-26T21:00:21.386Z,99607.59
2023-11-26T21:02:48.783Z,99603.81
2023-11-26T21:05:15.927Z,99605.84
2023-11-26T21:07:43.673Z,99617.09
2023-11-26T21:10:11.264Z,99607.47
2023-11-26T21:12:38.491Z,99614.47
2023-11-26T21:15:06.050Z,99610.63
2023-11-26T21:17:33.958Z,99615.91
2023-11-26T21:20:00.977Z,99611.91
2023-11-26T21:22:28.067Z,99618.00
2023-11-26T21:24:55.178Z,99625.44
2023-11-26T21:27:22.205Z,99620.06
2023-11-26T21:29:49.219Z,99606.81
2023-11-26T21:32:16.578Z,99621.69
2023-11-26T21:34:45.700Z,99614.84
2023-11-26T21:37:13.095Z,99629.69
2023-11-26T21:39:41.865Z,99635.09
2023-11-26T21:42:08.823Z,99639.78
2023-11-26T21:44:35.866Z,99639.69
2023-11-26T21:47:03.006Z,99645.88
2023-11-26T21:49:30.113Z,99657.34
2023-11-26T21:51:57.254Z,99657.16
2023-11-26T21:54:24.273Z,99665.84
2023-11-26T21:56:51.343Z,99662.41
2023-11-26T21:59:18.435Z,99659.09
2023-11-26T22:01:45.749Z,99658.41
2023-11-26T22:04:12.801Z,99664.56
2023-11-26T22:06:39.921Z,99668.13
2023-11-26T22:09:06.955Z,99675.38
2023-11-26T22:11:33.933Z,99682.91
2023-11-26T22:14:00.987Z,99688.88
2023-11-26T22:16:28.356Z,99683.41
2023-11-26T22:18:55.529Z,99684.31
2023-11-26T22:21:23.468Z,99687.72
2023-11-26T22:23:50.736Z,99689.69
2023-11-26T22:26:17.848Z,99693.47
2023-11-26T22:28:44.897Z,99692.34
2023-11-26T22:31:15.701Z,99694.38
2023-11-26T22:33:42.820Z,99693.81
2023-11-26T22:36:10.058Z,99702.06
2023-11-26T22:38:37.151Z,99694.50
2023-11-26T22:41:04.203Z,99699.56
2023-11-26T22:43:31.349Z,99701.97
2023-11-26T22:45:58.427Z,99706.66
2023-11-26T22:48:25.450Z,99705.84
2023-11-26T22:50:53.451Z,99699.00
2023-11-26T22:53:20.979Z,99709.41
2023-11-26T22:55:48.058Z,99710.09
2023-11-26T22:58:15.124Z,99710.78
2023-11-26T23:00:42.598Z,99719.72
2023-11-26T23:03:09.937Z,99718.81
2023-11-26T23:05:37.099Z,99724.31
2023-11-26T23:08:04.226Z,99716.06
2023-11-26T23:10:31.248Z,99726.84
2023-11-26T23:12:58.348Z,99727.31
2023-11-26T23:15:25.435Z,99735.91
2023-11-26T23:17:52.653Z,99739.00
2023-11-26T23:20:19.755Z,99747.59
2023-11-26T23:22:46.824Z,99753.63
2023-11-26T23:25:13.875Z,99762.25
2023-11-26T23:27:40.987Z,99750.44
2023-11-26T23:30:08.235Z,99745.72
2023-11-26T23:32:35.326Z,99740.31
2023-11-26T23:35:02.338Z,99742.88
2023-11-26T23:37:29.393Z,99747.66
2023-11-26T23:39:56.571Z,99745.09
2023-11-26T23:42:23.546Z,99743.53
2023-11-26T23:44:50.630Z,99755.91
2023-11-26T23:47:17.760Z,99766.25
2023-11-26T23:49:44.770Z,99765.16
2023-11-26T23:52:11.967Z,99768.56
2023-11-26T23:54:39.101Z,99768.56
2023-11-26T23:57:06.256Z,99777.97
2023-11-26T23:59:33.220Z,99776.66
